Jackie — WDF2439 — position and weather

sailwx.info

Track history (hours):
 
Tides and Currents Weather Stations Pressure Air Temp Water Temp Dewpoint Dewpoint Depression Visibility Wind Speed Wind Dir Waves Ship Positions

Jackie

Owner: Enterprise Marine Services, LLC, San Antonio, TX. More information available from US FCC via Universal Licensing System and Coast Guard Vessel Documentation Center.

Last reported at 2017-Sep-20 17:04 UTC. Time now 2017-Sep-23 23:40 UTC.
Position N 29°32' W 090°49'.

Length 24 m; draft 3.3 m.

Type: Tug. MMSI: 367050250.

Date/timePositionNaut miles runAvg speedWind from/ knotsBaromVisibWave heightAir tempDewpointWater temp
2017-Sep-20 17:04N 29°32' W 090°49'1 7.9
2017-Sep-20 16:58N 29°32' W 090°49'3 6.5
2017-Sep-20 16:30N 29°33' W 090°45'2 4.6
2017-Sep-20 16:00N 29°34' W 090°43'0 0.6
2017-Sep-20 15:30N 29°34' W 090°43'0 0.1
2017-Sep-20 15:00N 29°34' W 090°43'0 0.0
2017-Sep-20 14:00N 29°34' W 090°43'0 0.0
2017-Sep-20 13:30N 29°34' W 090°43'0 0.0
2017-Sep-20 13:00N 29°34' W 090°43'0 0.0
2017-Sep-20 12:29N 29°34' W 090°43'0 0.1
2017-Sep-20 12:00N 29°34' W 090°43'0 0.0
2017-Sep-20 11:30N 29°34' W 090°43'0 0.0
2017-Sep-20 11:00N 29°34' W 090°43'0 0.0
2017-Sep-20 10:30N 29°34' W 090°43'0 0.1
2017-Sep-20 10:00N 29°34' W 090°43'0 0.1
2017-Sep-20 09:30N 29°34' W 090°43'0 0.1
2017-Sep-20 09:00N 29°34' W 090°43'0 0.3
2017-Sep-20 08:30N 29°34' W 090°43'0 0.3
2017-Sep-20 08:00N 29°34' W 090°43'1 1.1
2017-Sep-20 07:30N 29°34' W 090°43'3 6.5
2017-Sep-20 07:00N 29°32' W 090°46'4 8.2
2017-Sep-20 06:29N 29°32' W 090°51'4 8.1
2017-Sep-20 05:56N 29°34' W 090°56'59 6.3
2017-Sep-19 20:34N 29°49' W 092°02'0 7.3
2017-Sep-19 20:30N 29°49' W 092°02'4 7.3
2017-Sep-19 20:00N 29°48' W 092°06'4 7.6
2017-Sep-19 19:30N 29°46' W 092°10'2 4.9
2017-Sep-19 19:00N 29°47' W 092°13'4 6.7
2017-Sep-19 18:25N 29°49' W 092°17'44 6.6
2017-Sep-19 11:46N 29°56' W 093°07'2 7.0
2017-Sep-19 11:30N 29°56' W 093°09'3 6.9
2017-Sep-19 11:00N 29°59' W 093°12'3 5.7
2017-Sep-19 10:30N 30°01' W 093°14'3 5.7
2017-Sep-19 10:00N 30°03' W 093°16'3 5.1
2017-Sep-19 09:30N 30°05' W 093°17'1 2.0
2017-Sep-19 09:00N 30°06' W 093°18'1 1.0
2017-Sep-19 08:30N 30°06' W 093°19'3 6.1
2017-Sep-19 08:00N 30°04' W 093°21'4 7.7
2017-Sep-19 07:30N 30°04' W 093°26'4 8.2
2017-Sep-19 07:00N 30°04' W 093°30'79 4.8
2017-Sep-18 14:26N 29°34' W 094°55'4 6.7
2017-Sep-18 13:50N 29°38' W 094°58'2 5.8
2017-Sep-18 13:30N 29°39' W 094°58'4 6.7
2017-Sep-18 12:57N 29°42' W 095°01'3 5.9
2017-Sep-18 12:28N 29°44' W 095°03'2 0.1
2017-Sep-16 14:07N 29°45' W 095°06'0 0.0
2017-Sep-16 13:49N 29°45' W 095°06'0 0.0
2017-Sep-16 09:52N 29°45' W 095°06'0 0.0
2017-Sep-16 05:58N 29°45' W 095°06'0 0.0
2017-Sep-16 05:28N 29°45' W 095°06'0 0.0
2017-Sep-16 04:58N 29°45' W 095°06'0 0.0
2017-Sep-16 03:40N 29°45' W 095°06'0 0.0
2017-Sep-16 03:22N 29°45' W 095°06'0 0.0
2017-Sep-16 02:58N 29°45' W 095°06'0 0.0
2017-Sep-15 23:37N 29°45' W 095°06'0 0.0
2017-Sep-15 23:25N 29°45' W 095°06'0 0.0
2017-Sep-15 22:46N 29°45' W 095°06'0 0.0
2017-Sep-15 22:25N 29°45' W 095°06'1 0.1
2017-Sep-15 14:06N 29°45' W 095°06'1 4.4
2017-Sep-15 13:54N 29°46' W 095°05'  
Track history (hours):
 
Tides and Currents Weather Stations Pressure Air Temp Water Temp Dewpoint Dewpoint Depression Visibility Wind Speed Wind Dir Waves Ship Positions

Jackie

Owner: Enterprise Marine Services, LLC, San Antonio, TX. More information available from US FCC via Universal Licensing System and Coast Guard Vessel Documentation Center.

Last reported at 2017-Sep-20 17:04 UTC. Time now 2017-Sep-23 23:40 UTC.
Position N 29°32' W 090°49'.

Length 24 m; draft 3.3 m.

Type: Tug. MMSI: 367050250.

Date/timePositionNaut miles runAvg speedWind from/ knotsBaromVisibWave heightAir tempDewpointWater temp
2017-Sep-20 17:04N 29°32' W 090°49'1 7.9
2017-Sep-20 16:58N 29°32' W 090°49'3 6.5
2017-Sep-20 16:30N 29°33' W 090°45'2 4.6
2017-Sep-20 16:00N 29°34' W 090°43'0 0.6
2017-Sep-20 15:30N 29°34' W 090°43'0 0.1
2017-Sep-20 15:00N 29°34' W 090°43'0 0.0
2017-Sep-20 14:00N 29°34' W 090°43'0 0.0
2017-Sep-20 13:30N 29°34' W 090°43'0 0.0
2017-Sep-20 13:00N 29°34' W 090°43'0 0.0
2017-Sep-20 12:29N 29°34' W 090°43'0 0.1
2017-Sep-20 12:00N 29°34' W 090°43'0 0.0
2017-Sep-20 11:30N 29°34' W 090°43'0 0.0
2017-Sep-20 11:00N 29°34' W 090°43'0 0.0
2017-Sep-20 10:30N 29°34' W 090°43'0 0.1
2017-Sep-20 10:00N 29°34' W 090°43'0 0.1
2017-Sep-20 09:30N 29°34' W 090°43'0 0.1
2017-Sep-20 09:00N 29°34' W 090°43'0 0.3
2017-Sep-20 08:30N 29°34' W 090°43'0 0.3
2017-Sep-20 08:00N 29°34' W 090°43'1 1.1
2017-Sep-20 07:30N 29°34' W 090°43'3 6.5
2017-Sep-20 07:00N 29°32' W 090°46'4 8.2
2017-Sep-20 06:29N 29°32' W 090°51'4 8.1
2017-Sep-20 05:56N 29°34' W 090°56'59 6.3
2017-Sep-19 20:34N 29°49' W 092°02'0 7.3
2017-Sep-19 20:30N 29°49' W 092°02'4 7.3
2017-Sep-19 20:00N 29°48' W 092°06'4 7.6
2017-Sep-19 19:30N 29°46' W 092°10'2 4.9
2017-Sep-19 19:00N 29°47' W 092°13'4 6.7
2017-Sep-19 18:25N 29°49' W 092°17'44 6.6
2017-Sep-19 11:46N 29°56' W 093°07'2 7.0
2017-Sep-19 11:30N 29°56' W 093°09'3 6.9
2017-Sep-19 11:00N 29°59' W 093°12'3 5.7
2017-Sep-19 10:30N 30°01' W 093°14'3 5.7
2017-Sep-19 10:00N 30°03' W 093°16'3 5.1
2017-Sep-19 09:30N 30°05' W 093°17'1 2.0
2017-Sep-19 09:00N 30°06' W 093°18'1 1.0
2017-Sep-19 08:30N 30°06' W 093°19'3 6.1
2017-Sep-19 08:00N 30°04' W 093°21'4 7.7
2017-Sep-19 07:30N 30°04' W 093°26'4 8.2
2017-Sep-19 07:00N 30°04' W 093°30'79 4.8
2017-Sep-18 14:26N 29°34' W 094°55'4 6.7
2017-Sep-18 13:50N 29°38' W 094°58'2 5.8
2017-Sep-18 13:30N 29°39' W 094°58'4 6.7
2017-Sep-18 12:57N 29°42' W 095°01'3 5.9
2017-Sep-18 12:28N 29°44' W 095°03'2 0.1
2017-Sep-16 14:07N 29°45' W 095°06'0 0.0
2017-Sep-16 13:49N 29°45' W 095°06'0 0.0
2017-Sep-16 09:52N 29°45' W 095°06'0 0.0
2017-Sep-16 05:58N 29°45' W 095°06'0 0.0
2017-Sep-16 05:28N 29°45' W 095°06'0 0.0
2017-Sep-16 04:58N 29°45' W 095°06'0 0.0
2017-Sep-16 03:40N 29°45' W 095°06'0 0.0
2017-Sep-16 03:22N 29°45' W 095°06'0 0.0
2017-Sep-16 02:58N 29°45' W 095°06'0 0.0
2017-Sep-15 23:37N 29°45' W 095°06'0 0.0
2017-Sep-15 23:25N 29°45' W 095°06'0 0.0
2017-Sep-15 22:46N 29°45' W 095°06'0 0.0
2017-Sep-15 22:25N 29°45' W 095°06'1 0.1
2017-Sep-15 14:06N 29°45' W 095°06'1 4.4
2017-Sep-15 13:54N 29°46' W 095°05'  

Dump ship's entire track history